Terminal Aerodrome Forecast
Issued by NWS Twin Cities, MN

Home | Current Version | Previous Version | Text Only | Print | Product List | Glossary Off
Versions: 1 2 3 4 5 6 7 8 9 10 11 12 13 14 15 16 17 18 19 20 21 22 23 24 25 26 27 28

000
FTUS43 KMPX 061720
TAFMSP
TAF
KMSP 061720Z 0618/0724 34011G21KT 6SM -SHRA FEW009 BKN015 OVC040
      TEMPO 0618/0620 3SM -RA BR
     FM062000 34014G21KT 6SM HZ BKN040 BKN100
     FM070100 33008KT 6SM HZ SCT250
     FM070800 33006KT P6SM SKC
     FM071700 36007KT P6SM FEW040=

USA.gov is the U.S. government's official web portal to all federal, state and local government web resources and services.